createdAt,value
2018-12-13T05:03:19.571Z,92.10
2018-12-13T05:05:48.816Z,92.20
2018-12-13T05:08:18.258Z,92.40
2018-12-13T05:10:55.002Z,92.50
2018-12-13T05:13:24.574Z,92.50
2018-12-13T05:15:54.042Z,92.50
2018-12-13T05:18:23.300Z,92.40
2018-12-13T05:20:52.648Z,92.40
2018-12-13T05:23:21.970Z,92.20
2018-12-13T05:25:53.362Z,92.10
2018-12-13T05:28:22.674Z,92.10
2018-12-13T05:30:51.990Z,91.90
2018-12-13T05:33:21.426Z,91.90
2018-12-13T05:35:50.911Z,92.00
2018-12-13T05:38:20.166Z,91.80
2018-12-13T05:40:49.465Z,91.80
2018-12-13T05:43:18.856Z,91.90
2018-12-13T05:45:48.315Z,91.90
2018-12-13T05:48:17.632Z,91.70
2018-12-13T05:50:47.056Z,91.60
2018-12-13T05:53:16.499Z,92.00
2018-12-13T05:55:46.734Z,92.30
2018-12-13T05:58:16.020Z,92.30
2018-12-13T06:00:45.434Z,92.20
2018-12-13T06:03:14.878Z,92.10
2018-12-13T06:05:44.277Z,91.90
2018-12-13T06:08:13.561Z,92.10
2018-12-13T06:10:42.847Z,91.80
2018-12-13T06:13:13.306Z,91.80
2018-12-13T06:15:42.642Z,91.60
2018-12-13T06:18:12.040Z,91.40
2018-12-13T06:20:41.318Z,91.40
2018-12-13T06:23:10.593Z,91.70
2018-12-13T06:25:39.880Z,91.60
2018-12-13T06:31:24.212Z,91.60
2018-12-13T06:33:53.718Z,91.60
2018-12-13T06:36:23.018Z,91.40
2018-12-13T06:38:52.371Z,91.20
2018-12-13T06:41:21.803Z,91.40
2018-12-13T06:43:52.288Z,91.40
2018-12-13T06:46:22.722Z,91.50
2018-12-13T06:48:52.077Z,91.70
2018-12-13T06:51:21.507Z,91.60
2018-12-13T06:53:50.826Z,91.40
2018-12-13T06:56:20.082Z,91.60
2018-12-13T06:58:49.527Z,91.60
2018-12-13T07:01:18.799Z,91.40
2018-12-13T07:03:48.057Z,91.30
2018-12-13T07:06:17.527Z,91.50
2018-12-13T07:08:47.085Z,91.60
2018-12-13T07:11:17.157Z,91.50
2018-12-13T07:13:46.595Z,91.20
2018-12-13T07:16:15.951Z,91.30
2018-12-13T07:18:45.566Z,91.50
2018-12-13T07:21:15.094Z,91.30
2018-12-13T07:23:44.369Z,91.30
2018-12-13T07:26:13.996Z,91.10
2018-12-13T07:28:43.563Z,90.90
2018-12-13T07:31:13.061Z,90.80
2018-12-13T07:33:42.877Z,90.90
2018-12-13T07:36:12.276Z,90.90
2018-12-13T07:38:41.830Z,90.70
2018-12-13T07:41:11.790Z,90.60
2018-12-13T07:43:41.323Z,90.40
2018-12-13T07:46:11.927Z,90.30
2018-12-13T07:48:41.329Z,90.40
2018-12-13T07:51:10.777Z,90.60
2018-12-13T07:53:40.491Z,90.40
2018-12-13T07:56:10.251Z,90.20
2018-12-13T07:58:39.888Z,90.30
2018-12-13T08:01:09.231Z,90.20
2018-12-13T08:03:38.839Z,90.40
2018-12-13T08:06:08.889Z,90.30
2018-12-13T08:08:38.263Z,90.50
2018-12-13T08:11:07.794Z,90.20
2018-12-13T08:13:37.109Z,89.70
2018-12-13T08:16:06.483Z,89.30
2018-12-13T08:18:38.026Z,89.30
2018-12-13T08:21:09.544Z,90.00
2018-12-13T08:23:39.356Z,90.20
2018-12-13T08:26:08.707Z,90.10
2018-12-13T08:28:38.233Z,90.00
2018-12-13T08:31:07.693Z,89.90
2018-12-13T08:33:37.371Z,89.70
2018-12-13T08:36:06.652Z,89.30
2018-12-13T08:38:36.064Z,89.60
2018-12-13T08:41:05.527Z,90.00
2018-12-13T08:43:35.132Z,89.90
2018-12-13T08:46:04.899Z,90.10
2018-12-13T08:48:34.792Z,89.70
2018-12-13T08:51:04.824Z,89.80
2018-12-13T08:53:34.490Z,89.90
2018-12-13T08:56:04.048Z,89.90
2018-12-13T08:58:33.392Z,89.90
2018-12-13T09:01:02.804Z,90.10
2018-12-13T09:03:32.272Z,89.90
2018-12-13T09:06:01.834Z,90.00
2018-12-13T09:08:33.763Z,89.90
2018-12-13T09:11:02.482Z,90.00
2018-12-13T09:13:32.037Z,89.00
2018-12-13T09:16:01.348Z,88.30
2018-12-13T09:18:30.828Z,88.90
2018-12-13T09:21:00.158Z,89.10
2018-12-13T09:23:29.480Z,88.30
2018-12-13T09:25:59.277Z,88.10
2018-12-13T09:28:29.113Z,88.60
2018-12-13T09:30:58.438Z,88.70
2018-12-13T09:33:27.824Z,88.50
2018-12-13T09:35:57.110Z,88.70
2018-12-13T09:38:27.439Z,89.50
2018-12-13T09:40:56.950Z,88.70
2018-12-13T09:43:26.622Z,89.10
2018-12-13T09:45:55.949Z,88.90
2018-12-13T09:48:25.521Z,88.10
2018-12-13T09:55:43.503Z,89.00
2018-12-13T09:58:13.262Z,89.10
2018-12-13T10:00:42.537Z,89.10
2018-12-13T10:03:12.071Z,89.10
2018-12-13T10:05:41.718Z,88.70
2018-12-13T10:08:11.651Z,89.00
2018-12-13T10:10:41.389Z,89.40
2018-12-13T10:19:36.485Z,89.20
2018-12-13T10:22:11.623Z,89.50
2018-12-13T10:24:38.111Z,90.20
2018-12-13T10:27:07.703Z,89.60
2018-12-13T10:29:37.134Z,89.40
2018-12-13T10:32:06.786Z,88.50
2018-12-13T10:34:36.412Z,88.90
2018-12-13T10:37:05.807Z,88.80
2018-12-13T10:39:35.573Z,88.70
2018-12-13T10:42:04.888Z,89.00
2018-12-13T10:44:36.399Z,89.40
2018-12-13T10:47:06.004Z,89.20
2018-12-13T10:49:35.644Z,89.40
2018-12-13T10:52:05.323Z,90.00
2018-12-13T10:54:34.700Z,89.40
2018-12-13T10:57:04.294Z,89.50
2018-12-13T10:59:34.283Z,89.30
2018-12-13T11:02:05.871Z,89.30
2018-12-13T11:04:35.135Z,90.00
2018-12-13T11:07:04.769Z,89.50
2018-12-13T11:09:34.263Z,88.90
2018-12-13T11:12:03.841Z,88.60
2018-12-13T11:14:33.272Z,89.10
2018-12-13T11:17:02.691Z,88.80
2018-12-13T11:19:31.941Z,88.80
2018-12-13T11:22:01.627Z,88.90
2018-12-13T11:24:31.023Z,88.80
2018-12-13T11:28:09.386Z,88.10
2018-12-13T11:30:38.861Z,88.30
2018-12-13T11:33:08.627Z,88.70
2018-12-13T11:35:38.248Z,89.10
2018-12-13T11:38:07.773Z,88.40
2018-12-13T11:40:37.280Z,88.60
2018-12-13T11:43:06.658Z,88.30
2018-12-13T11:48:24.170Z,88.80
2018-12-13T11:50:54.096Z,87.90
2018-12-13T11:53:23.402Z,87.40
2018-12-13T11:55:52.893Z,86.70
2018-12-13T11:58:22.686Z,86.80
2018-12-13T12:00:52.109Z,86.30
2018-12-13T12:03:21.683Z,86.50
2018-12-13T12:05:51.491Z,86.50
2018-12-13T12:08:20.838Z,86.20
2018-12-13T12:10:50.140Z,85.90
2018-12-13T12:13:19.571Z,86.10
2018-12-13T12:15:49.152Z,85.90
2018-12-13T12:18:18.472Z,85.30
2018-12-13T12:20:47.816Z,86.30
2018-12-13T12:23:17.217Z,86.50
2018-12-13T12:25:46.672Z,87.00
2018-12-13T12:28:16.243Z,87.10
2018-12-13T12:30:45.672Z,86.40
2018-12-13T12:33:15.144Z,86.70
2018-12-13T12:35:44.866Z,85.80
2018-12-13T12:38:14.118Z,85.50
2018-12-13T12:40:43.546Z,85.50
2018-12-13T12:43:12.764Z,86.30
2018-12-13T12:45:42.074Z,85.50
2018-12-13T12:48:11.470Z,86.00
2018-12-13T12:50:41.079Z,86.80
2018-12-13T12:53:10.590Z,86.60
2018-12-13T12:55:39.916Z,86.30
2018-12-13T12:58:09.332Z,86.50
2018-12-13T13:00:38.674Z,85.90
2018-12-13T13:03:08.274Z,85.50
2018-12-13T13:05:37.883Z,85.50
2018-12-13T13:08:07.338Z,86.20
2018-12-13T13:10:36.985Z,86.70
2018-12-13T13:13:06.316Z,86.60
2018-12-13T13:18:39.094Z,86.10
2018-12-13T13:21:08.815Z,86.60
2018-12-13T13:23:38.107Z,86.10
2018-12-13T13:26:07.647Z,86.20
2018-12-13T13:28:36.947Z,86.60
2018-12-13T13:31:06.217Z,86.30
2018-12-13T13:33:35.665Z,85.70
2018-12-13T13:39:21.568Z,85.80
2018-12-13T13:41:50.888Z,85.90
2018-12-13T13:44:21.182Z,86.40
2018-12-13T13:46:50.702Z,85.80
2018-12-13T13:49:20.679Z,85.40
2018-12-13T13:51:50.143Z,85.80
2018-12-13T13:54:19.619Z,85.90
2018-12-13T13:56:49.122Z,86.50
2018-12-13T13:59:18.807Z,86.40
2018-12-13T14:01:49.215Z,86.60
2018-12-13T14:04:18.859Z,86.00
2018-12-13T14:06:48.236Z,85.40
2018-12-13T14:09:17.539Z,85.60
2018-12-13T14:11:46.989Z,85.70
2018-12-13T14:14:16.647Z,85.90
2018-12-13T14:16:46.097Z,86.40
2018-12-13T14:19:15.529Z,86.80
2018-12-13T14:21:44.855Z,87.10
2018-12-13T14:24:14.301Z,86.40
2018-12-13T14:26:43.922Z,86.80
2018-12-13T14:29:13.281Z,87.30
2018-12-13T14:31:43.544Z,87.00
2018-12-13T14:34:12.974Z,87.80
2018-12-13T14:39:56.662Z,87.50
2018-12-13T14:42:27.992Z,87.00
2018-12-13T14:44:57.670Z,87.30
2018-12-13T14:47:27.581Z,86.90
2018-12-13T14:49:57.014Z,86.50
2018-12-13T14:52:26.329Z,86.30
2018-12-13T14:54:55.764Z,86.00
2018-12-13T14:57:25.243Z,85.60
2018-12-13T14:59:54.608Z,85.70
2018-12-13T15:02:24.109Z,86.40
2018-12-13T15:04:54.150Z,86.00
2018-12-13T15:07:23.829Z,86.30
2018-12-13T15:09:53.682Z,86.50
2018-12-13T15:12:23.656Z,86.00
2018-12-13T15:14:53.283Z,85.40
2018-12-13T15:24:26.611Z,85.40
2018-12-13T15:27:09.267Z,85.20
2018-12-13T15:29:38.843Z,85.10
2018-12-13T15:32:08.239Z,85.20
2018-12-13T15:34:37.677Z,85.40
2018-12-13T15:37:07.516Z,85.40
2018-12-13T15:39:36.989Z,85.20
2018-12-13T15:42:06.644Z,85.50
2018-12-13T15:44:36.513Z,85.40
2018-12-13T15:47:06.128Z,85.60
2018-12-13T15:49:35.707Z,85.60
2018-12-13T15:52:05.544Z,85.80
2018-12-13T15:54:36.100Z,85.80
2018-12-13T15:57:05.626Z,86.10
2018-12-13T15:59:35.303Z,86.50
2018-12-13T16:02:04.855Z,86.20
2018-12-13T16:04:34.707Z,85.80
2018-12-13T16:07:04.648Z,85.20
2018-12-13T16:09:34.562Z,85.10
2018-12-13T16:12:04.187Z,84.80
2018-12-13T16:14:34.136Z,85.80
2018-12-13T16:17:03.635Z,85.00
2018-12-13T16:19:33.456Z,85.80
2018-12-13T16:25:17.827Z,86.00
2018-12-13T16:27:47.561Z,86.70
2018-12-13T16:33:53.233Z,87.60
2018-12-13T16:36:22.749Z,88.00
2018-12-13T16:38:52.075Z,87.90
2018-12-13T16:41:21.741Z,87.90
2018-12-13T16:43:51.187Z,87.40
2018-12-13T16:46:20.855Z,87.00
2018-12-13T16:48:50.747Z,86.20
2018-12-13T16:51:20.845Z,86.00
2018-12-13T16:53:50.559Z,85.90
2018-12-13T16:56:20.095Z,86.60
2018-12-13T16:58:49.529Z,86.60
2018-12-13T17:01:19.180Z,86.40
2018-12-13T17:03:48.633Z,87.40
2018-12-13T17:06:18.171Z,87.40
2018-12-13T17:08:47.501Z,87.80
2018-12-13T17:11:16.853Z,87.60
2018-12-13T17:13:47.736Z,87.70
2018-12-13T17:16:17.509Z,87.80
2018-12-13T17:18:46.908Z,87.70
2018-12-13T17:39:20.144Z,85.40
2018-12-13T17:41:50.014Z,86.80
2018-12-13T17:44:19.918Z,87.10
2018-12-13T17:48:36.719Z,83.90
2018-12-13T17:51:06.780Z,86.70
2018-12-13T17:53:36.226Z,87.00
2018-12-13T17:56:06.339Z,87.10
2018-12-13T17:58:35.965Z,87.00
2018-12-13T18:01:05.475Z,87.00
2018-12-13T18:03:35.005Z,87.30
2018-12-13T18:06:05.409Z,87.00
2018-12-13T18:08:35.316Z,87.20
2018-12-13T18:11:05.314Z,87.40
2018-12-13T18:13:34.841Z,87.30
2018-12-13T18:16:04.419Z,88.00
2018-12-13T18:18:33.868Z,88.30
2018-12-13T18:21:03.270Z,88.30
2018-12-13T18:23:32.575Z,88.10
2018-12-13T18:26:02.137Z,88.00
2018-12-13T18:28:32.335Z,88.00
2018-12-13T18:31:01.633Z,87.50
2018-12-13T18:33:31.251Z,87.90
2018-12-13T18:36:00.648Z,87.50
2018-12-13T18:38:29.994Z,87.20
2018-12-13T18:41:00.826Z,87.60
2018-12-13T18:43:31.273Z,86.40
2018-12-13T18:46:00.664Z,86.40
2018-12-13T18:48:30.864Z,86.80
2018-12-13T18:53:38.477Z,87.30
2018-12-13T18:56:08.333Z,87.00
2018-12-13T18:58:38.481Z,86.40
2018-12-13T19:01:07.916Z,86.40
2018-12-13T19:03:41.538Z,86.20
2018-12-13T19:06:11.001Z,85.90
2018-12-13T19:08:40.379Z,85.60
2018-12-13T19:11:10.657Z,85.20
2018-12-13T19:13:47.431Z,85.60
2018-12-13T19:16:19.150Z,85.50
2018-12-13T19:18:52.648Z,85.60
2018-12-13T19:21:26.867Z,86.40
2018-12-13T19:23:56.432Z,85.80
2018-12-13T19:26:26.403Z,86.00
2018-12-13T19:28:56.035Z,85.40
2018-12-13T19:31:25.433Z,85.90
2018-12-13T19:33:58.683Z,85.80
2018-12-13T19:36:28.721Z,85.40
2018-12-13T19:38:58.652Z,84.50
2018-12-13T19:41:29.179Z,83.90
2018-12-13T19:44:01.441Z,83.50
2018-12-13T19:46:31.741Z,83.40
2018-12-13T19:49:03.172Z,83.40
2018-12-13T19:51:35.166Z,84.40
2018-12-13T19:54:05.936Z,84.90
2018-12-13T19:56:35.567Z,85.50
2018-12-13T19:59:06.484Z,85.20
2018-12-13T20:01:36.093Z,85.40
2018-12-13T20:04:11.617Z,85.90
2018-12-13T20:06:49.873Z,85.80
2018-12-13T20:09:25.089Z,85.50
2018-12-13T20:11:56.357Z,84.80
2018-12-13T20:14:26.926Z,84.80
2018-12-13T20:16:57.453Z,85.20
2018-12-13T20:19:27.550Z,85.10
2018-12-13T20:21:57.855Z,85.60
2018-12-13T20:24:27.419Z,86.80
2018-12-13T20:26:57.075Z,85.80
2018-12-13T20:29:27.349Z,86.10
2018-12-13T20:31:57.104Z,86.00
2018-12-13T20:34:27.770Z,86.10
2018-12-13T20:36:58.185Z,86.20
2018-12-13T20:39:27.803Z,85.90
2018-12-13T20:41:57.654Z,85.90
2018-12-13T21:12:11.726Z,85.40
2018-12-13T21:14:41.345Z,86.70
2018-12-13T21:17:10.961Z,86.10
2018-12-13T21:19:40.741Z,86.30
2018-12-13T21:22:10.575Z,86.10
2018-12-13T21:24:40.918Z,86.50
2018-12-13T21:27:11.265Z,86.60
2018-12-13T21:29:45.338Z,86.70
2018-12-13T21:32:15.617Z,86.90
2018-12-13T21:34:45.375Z,87.10
2018-12-13T21:37:14.985Z,87.50
2018-12-13T21:39:45.071Z,87.40
2018-12-13T21:42:14.847Z,87.30
2018-12-13T21:44:44.131Z,86.70
2018-12-13T21:47:14.487Z,86.70
2018-12-13T21:49:44.197Z,86.50
2018-12-13T21:52:13.859Z,86.70
2018-12-13T21:54:43.544Z,86.30
2018-12-13T21:57:13.634Z,86.10
2018-12-13T21:59:43.319Z,86.10
2018-12-13T22:02:12.906Z,86.30
2018-12-13T22:04:43.594Z,86.10
2018-12-13T22:07:13.200Z,86.50
2018-12-13T22:09:42.792Z,86.70
2018-12-13T22:12:12.460Z,86.90
2018-12-13T22:14:42.036Z,86.90
2018-12-13T22:17:11.498Z,87.30
2018-12-13T22:19:41.180Z,87.30
2018-12-13T22:22:10.732Z,87.10
2018-12-13T22:24:40.043Z,87.60
2018-12-13T22:42:12.754Z,88.10
2018-12-13T22:44:42.495Z,87.40
2018-12-13T22:47:12.007Z,87.10
2018-12-13T22:49:41.617Z,86.90
2018-12-13T22:52:12.107Z,86.90
2018-12-13T22:54:42.295Z,87.60
2018-12-13T22:57:11.881Z,87.90
2018-12-13T22:59:41.460Z,87.90
2018-12-13T23:02:10.889Z,88.50
2018-12-13T23:04:40.503Z,89.00
2018-12-13T23:07:11.451Z,88.70
2018-12-13T23:09:41.001Z,88.50
2018-12-13T23:12:11.131Z,88.30
2018-12-13T23:14:41.257Z,89.20
2018-12-13T23:17:11.715Z,88.30
2018-12-13T23:19:41.243Z,88.80
2018-12-13T23:22:11.211Z,87.90
2018-12-13T23:24:40.813Z,87.60
2018-12-13T23:27:10.327Z,87.40
2018-12-13T23:29:39.787Z,87.40
2018-12-13T23:41:11.172Z,87.60
2018-12-13T23:43:40.730Z,87.60
2018-12-13T23:46:10.427Z,87.90
2018-12-13T23:48:40.203Z,87.50
2018-12-13T23:51:10.182Z,87.70
2018-12-13T23:53:40.448Z,88.00
2018-12-13T23:56:10.166Z,87.80
2018-12-13T23:58:39.838Z,87.90
